Time;durP1;ratioP1;P1;durP2;ratioP2;P2;SDS_P1;SDS_P2;PMS_P1;PMS_P2;Temp;Humidity;BMP_temperature;BMP_pressure;BME280_temperature;BME280_humidity;BME280_pressure;Samples;Min_cycle;Max_cycle;Signal;HPM_P1;HPM_P2
2023/06/09 00:01:47;;;;;;;11.52;5.78;;;;;;;14.83;93.97;96241.13;5020926;28;20095;-66
2023/06/09 00:04:15;;;;;;;9.15;6.10;;;;;;;14.82;94.43;96245.09;5020469;28;20042;-66
2023/06/09 00:06:40;;;;;;;8.93;5.75;;;;;;;14.91;94.38;96244.66;5024930;28;20057;-66
2023/06/09 00:09:07;;;;;;;10.50;6.00;;;;;;;15.11;93.43;96247.63;5020773;28;20048;-67
2023/06/09 00:11:33;;;;;;;10.82;5.30;;;;;;;15.17;93.00;96242.44;5024758;28;20044;-66
2023/06/09 00:13:58;;;;;;;7.55;6.00;;;;;;;15.18;93.13;96246.75;5025011;28;20133;-66
2023/06/09 00:16:24;;;;;;;8.82;5.60;;;;;;;15.19;93.70;96245.59;5019903;28;20604;-66
2023/06/09 00:18:53;;;;;;;6.85;5.60;;;;;;;15.22;93.35;96240.03;5024999;28;20046;-66
2023/06/09 00:21:19;;;;;;;10.85;6.07;;;;;;;15.26;92.85;96234.47;5019187;28;20045;-67
2023/06/09 00:23:45;;;;;;;8.27;6.05;;;;;;;15.19;92.87;96223.50;5024944;28;20524;-68
2023/06/09 00:26:12;;;;;;;8.77;6.20;;;;;;;15.15;93.40;96222.78;5015287;28;20482;-67
2023/06/09 00:28:37;;;;;;;8.98;5.70;;;;;;;15.22;93.26;96219.94;5025097;28;20045;-66
2023/06/09 00:31:04;;;;;;;8.35;5.78;;;;;;;15.26;92.71;96220.69;5023754;28;20053;-68
2023/06/09 00:33:29;;;;;;;8.52;6.18;;;;;;;15.18;92.87;96217.22;5023397;28;20120;-67
2023/06/09 00:35:55;;;;;;;8.65;6.00;;;;;;;15.20;92.94;96214.06;5023372;28;20133;-66
2023/06/09 00:38:20;;;;;;;9.77;5.90;;;;;;;15.23;93.10;96215.97;5016488;28;20506;-67
2023/06/09 00:40:48;;;;;;;7.13;5.22;;;;;;;15.25;93.02;96211.63;5035095;28;20037;-67
2023/06/09 00:43:14;;;;;;;9.40;5.32;;;;;;;15.13;93.42;96214.91;5005370;28;20041;-67
2023/06/09 00:45:40;;;;;;;8.52;6.22;;;;;;;15.03;94.18;96211.03;5003284;28;20220;-66
2023/06/09 00:48:06;;;;;;;8.15;5.72;;;;;;;14.94;94.16;96209.94;4998899;28;20558;-67
2023/06/09 00:50:31;;;;;;;9.13;6.22;;;;;;;14.89;94.92;96213.91;5005047;28;20372;-66
2023/06/09 00:52:58;;;;;;;8.95;6.00;;;;;;;14.84;95.35;96215.16;5002412;28;20373;-66
2023/06/09 00:55:25;;;;;;;7.07;5.57;;;;;;;14.83;96.15;96210.81;5000515;28;20781;-68
2023/06/09 00:57:55;;;;;;;8.38;5.90;;;;;;;14.80;95.71;96214.41;5003860;28;20046;-67
2023/06/09 01:00:26;;;;;;;8.93;6.28;;;;;;;14.77;96.34;96211.66;4999115;28;20499;-66
2023/06/09 01:02:52;;;;;;;10.77;6.20;;;;;;;14.77;96.41;96208.91;5002585;28;20064;-66
2023/06/09 01:05:18;;;;;;;9.38;6.00;;;;;;;14.68;96.51;96204.63;4999226;28;20179;-66
2023/06/09 01:07:58;;;;;;;14.65;9.50;;;;;;;14.66;96.78;96215.28;5003657;28;20042;-65
2023/06/09 01:11:08;;;;;;;8.98;5.90;;;;;;;14.61;97.56;96212.97;4999624;28;20129;-65
2023/06/09 01:14:10;;;;;;;10.18;6.55;;;;;;;14.46;97.13;96211.47;4923363;29;20046;-64
2023/06/09 01:16:52;;;;;;;11.18;6.57;;;;;;;14.41;98.34;96209.91;4917808;29;20665;-65
2023/06/09 01:19:33;;;;;;;9.88;6.60;;;;;;;14.49;98.16;96216.16;4988525;28;20049;-65
2023/06/09 01:22:03;;;;;;;8.68;6.00;;;;;;;14.51;98.33;96227.56;5011147;28;20152;-66
2023/06/09 01:24:32;;;;;;;9.38;6.50;;;;;;;14.45;98.42;96220.91;5036118;28;20041;-67
2023/06/09 01:27:01;;;;;;;9.20;6.67;;;;;;;14.25;97.96;96218.66;5024304;28;20049;-68
2023/06/09 01:29:32;;;;;;;8.30;6.07;;;;;;;14.07;99.62;96218.00;5019425;28;20045;-67
2023/06/09 01:31:59;;;;;;;9.88;6.50;;;;;;;14.03;100.00;96209.75;5023789;28;20541;-67
2023/06/09 01:34:25;;;;;;;10.35;6.63;;;;;;;14.14;100.00;96218.72;5017061;28;20046;-67
2023/06/09 01:36:52;;;;;;;8.80;6.95;;;;;;;14.27;100.00;96210.00;5025187;28;20502;-67
2023/06/09 01:39:17;;;;;;;10.18;6.63;;;;;;;14.24;100.00;96210.81;5022805;28;20049;-66
2023/06/09 01:41:44;;;;;;;9.65;6.80;;;;;;;14.24;100.00;96206.09;5023270;28;20041;-67
2023/06/09 01:44:09;;;;;;;12.50;7.03;;;;;;;14.31;99.84;96211.56;5017925;28;20045;-66
2023/06/09 01:46:35;;;;;;;9.45;7.10;;;;;;;14.15;98.44;96206.53;5023157;28;20387;-66
2023/06/09 01:49:12;;;;;;;9.43;7.10;;;;;;;13.91;99.67;96202.72;5021699;28;20386;-65
2023/06/09 01:51:50;;;;;;;11.43;6.28;;;;;;;13.68;100.00;96205.94;5003081;28;20146;-66
2023/06/09 01:54:23;;;;;;;8.05;5.97;;;;;;;13.72;100.00;96214.19;5007396;28;20068;-66
2023/06/09 01:56:57;;;;;;;9.40;6.45;;;;;;;13.84;100.00;96218.50;5023493;28;20038;-67
2023/06/09 01:59:29;;;;;;;8.50;6.28;;;;;;;13.90;100.00;96206.66;5018159;28;20073;-67
2023/06/09 02:01:58;;;;;;;9.60;6.75;;;;;;;13.92;100.00;96214.53;5023750;28;20037;-68
2023/06/09 02:04:25;;;;;;;12.13;7.38;;;;;;;13.88;100.00;96213.75;5018438;28;20261;-68
2023/06/09 02:06:52;;;;;;;8.90;6.50;;;;;;;13.82;100.00;96209.84;5023064;28;20049;-68
2023/06/09 02:09:18;;;;;;;8.13;6.55;;;;;;;13.74;100.00;96209.88;5015286;28;20099;-68
2023/06/09 02:11:50;;;;;;;9.32;6.70;;;;;;;13.64;100.00;96210.69;5023273;28;20052;-68
2023/06/09 02:14:15;;;;;;;9.77;7.05;;;;;;;13.60;100.00;96212.69;5017862;28;20053;-69
2023/06/09 02:16:41;;;;;;;10.18;7.22;;;;;;;13.46;100.00;96220.97;5022707;28;20433;-69
2023/06/09 02:19:06;;;;;;;9.75;7.38;;;;;;;13.32;100.00;96221.78;5018213;28;20052;-68
2023/06/09 02:21:32;;;;;;;9.38;7.38;;;;;;;13.13;100.00;96214.72;5022786;28;20033;-68
2023/06/09 02:23:57;;;;;;;10.85;7.18;;;;;;;13.22;100.00;96219.81;5022169;28;20092;-69
2023/06/09 02:26:22;;;;;;;9.32;7.15;;;;;;;13.37;100.00;96218.63;5034424;28;20053;-68
2023/06/09 02:28:48;;;;;;;11.73;7.80;;;;;;;12.89;100.00;96219.06;5039047;28;20132;-68
2023/06/09 02:31:13;;;;;;;9.18;8.10;;;;;;;12.50;100.00;96217.88;5018839;28;20380;-68
2023/06/09 02:33:39;;;;;;;11.02;7.45;;;;;;;12.51;100.00;96213.94;5022817;28;20041;-68
2023/06/09 02:36:04;;;;;;;10.73;6.93;;;;;;;12.68;100.00;96203.38;5018142;28;20109;-68
2023/06/09 02:38:31;;;;;;;10.57;7.78;;;;;;;12.83;100.00;96210.44;5023694;28;20041;-68
2023/06/09 02:40:56;;;;;;;10.85;7.13;;;;;;;12.98;100.00;96205.69;5042987;28;20040;-68
2023/06/09 02:43:21;;;;;;;11.25;7.88;;;;;;;12.91;100.00;96209.25;5022842;28;20053;-68
2023/06/09 02:45:47;;;;;;;14.55;7.68;;;;;;;13.05;100.00;96204.91;5023404;28;20080;-68
2023/06/09 02:48:15;;;;;;;9.60;7.10;;;;;;;13.10;100.00;96199.78;5017546;28;20132;-68
2023/06/09 02:50:40;;;;;;;12.55;7.63;;;;;;;13.12;100.00;96197.44;5023018;28;20056;-68
2023/06/09 02:53:06;;;;;;;13.65;7.47;;;;;;;13.11;100.00;96204.13;5031690;28;20390;-67
2023/06/09 02:55:33;;;;;;;10.45;7.90;;;;;;;12.88;100.00;96206.50;5019787;28;20079;-67
2023/06/09 02:57:58;;;;;;;10.35;7.30;;;;;;;12.86;100.00;96204.16;5009499;28;20045;-67
2023/06/09 03:00:24;;;;;;;12.00;7.72;;;;;;;13.06;100.00;96199.03;4997255;28;20504;-68
2023/06/09 03:02:51;;;;;;;12.55;7.68;;;;;;;13.18;100.00;96203.31;5001932;28;20068;-67
2023/06/09 03:05:20;;;;;;;11.95;6.82;;;;;;;13.23;100.00;96199.38;4997318;28;20434;-67
2023/06/09 03:07:48;;;;;;;9.98;6.82;;;;;;;13.23;100.00;96204.88;5002707;28;20081;-68
2023/06/09 03:10:13;;;;;;;8.77;7.22;;;;;;;13.22;100.00;96212.34;4996560;28;20400;-67
2023/06/09 03:12:38;;;;;;;10.70;7.45;;;;;;;13.17;100.00;96210.78;5002600;28;20037;-69
2023/06/09 03:15:04;;;;;;;9.05;7.00;;;;;;;13.13;100.00;96209.22;4998892;28;20038;-68
2023/06/09 03:17:30;;;;;;;10.02;7.53;;;;;;;13.10;100.00;96221.00;5001832;28;20042;-68
2023/06/09 03:19:56;;;;;;;12.80;7.10;;;;;;;13.09;100.00;96224.94;5002035;28;20088;-67
2023/06/09 03:22:22;;;;;;;10.13;7.40;;;;;;;13.06;100.00;96223.78;4995424;28;21867;-67
2023/06/09 03:24:48;;;;;;;10.05;7.10;;;;;;;13.06;100.00;96225.75;5002470;28;20052;-68
2023/06/09 03:27:14;;;;;;;10.25;7.68;;;;;;;13.04;100.00;96230.84;4996959;28;20565;-67
2023/06/09 03:29:40;;;;;;;9.55;7.45;;;;;;;12.95;100.00;96225.75;5001927;28;20042;-67
2023/06/09 03:32:06;;;;;;;11.70;7.88;;;;;;;13.05;100.00;96224.16;4996434;28;20395;-67
2023/06/09 03:34:31;;;;;;;11.70;8.18;;;;;;;13.07;100.00;96221.78;5002449;28;20078;-67
2023/06/09 03:36:57;;;;;;;13.63;8.02;;;;;;;13.21;100.00;96210.78;5002480;28;20138;-67
2023/06/09 03:39:22;;;;;;;10.55;7.63;;;;;;;13.23;100.00;96219.41;5005668;28;21109;-68
2023/06/09 03:41:48;;;;;;;13.20;7.95;;;;;;;13.30;100.00;96219.41;5023588;28;20587;-67
2023/06/09 03:44:13;;;;;;;10.43;7.57;;;;;;;13.35;100.00;96221.78;5015555;28;20128;-67
2023/06/09 03:46:39;;;;;;;9.40;7.60;;;;;;;13.45;100.00;96222.16;5021157;28;20076;-67
2023/06/09 03:49:04;;;;;;;9.88;7.43;;;;;;;13.49;100.00;96220.19;5017350;28;20037;-67
2023/06/09 03:51:30;;;;;;;12.52;7.40;;;;;;;13.51;100.00;96223.31;5021064;28;20056;-67
2023/06/09 03:53:55;;;;;;;12.27;7.78;;;;;;;13.52;100.00;96224.88;5021551;28;20045;-67
2023/06/09 03:56:21;;;;;;;11.85;7.90;;;;;;;13.53;100.00;96234.72;5017228;28;20037;-67
2023/06/09 03:58:46;;;;;;;10.30;7.82;;;;;;;13.47;100.00;96228.84;5021633;28;20045;-67
2023/06/09 04:01:12;;;;;;;13.02;7.47;;;;;;;13.47;100.00;96231.59;5016863;28;20061;-67
2023/06/09 04:03:38;;;;;;;11.45;7.50;;;;;;;13.60;100.00;96226.44;5021218;28;20136;-67
2023/06/09 04:06:03;;;;;;;9.40;7.65;;;;;;;13.61;100.00;96229.97;5018097;28;20037;-69
2023/06/09 04:08:29;;;;;;;11.40;8.02;;;;;;;13.67;100.00;96231.91;5020475;28;20080;-67
2023/06/09 04:10:55;;;;;;;14.60;7.57;;;;;;;13.94;100.00;96234.97;5021501;28;20056;-67
2023/06/09 04:13:21;;;;;;;12.68;7.57;;;;;;;14.04;100.00;96238.06;5015524;28;20429;-67
2023/06/09 04:15:47;;;;;;;11.35;8.27;;;;;;;14.17;100.00;96227.38;5021492;28;20065;-66
2023/06/09 04:18:13;;;;;;;10.70;7.82;;;;;;;14.30;100.00;96236.75;5015023;28;20111;-66
2023/06/09 04:20:38;;;;;;;11.80;7.90;;;;;;;14.48;100.00;96239.41;5020314;28;20049;-67
2023/06/09 04:23:05;;;;;;;12.30;7.10;;;;;;;14.65;98.52;96243.25;5017222;28;20115;-67
2023/06/09 04:25:30;;;;;;;13.98;7.18;;;;;;;14.82;98.00;96242.34;5020973;28;20051;-67
2023/06/09 04:27:56;;;;;;;11.20;8.35;;;;;;;15.00;97.08;96242.19;5020566;28;20037;-67
2023/06/09 04:30:25;;;;;;;11.55;7.68;;;;;;;15.18;95.67;96241.25;5016422;28;20079;-67
2023/06/09 04:32:54;;;;;;;9.13;6.97;;;;;;;15.32;94.96;96246.63;5022717;28;20110;-67
2023/06/09 04:35:20;;;;;;;9.70;6.33;;;;;;;15.52;93.61;96240.53;5019079;28;20095;-67
2023/06/09 04:37:46;;;;;;;9.60;6.90;;;;;;;15.71;92.80;96250.19;5024107;28;20149;-67
2023/06/09 04:40:14;;;;;;;9.88;7.18;;;;;;;15.90;91.58;96252.38;5007961;28;20062;-67
2023/06/09 04:42:39;;;;;;;13.60;7.60;;;;;;;16.09;90.02;96244.66;5010612;28;20509;-67
2023/06/09 04:45:05;;;;;;;11.02;7.15;;;;;;;16.41;87.36;96250.53;5019808;28;20041;-67
2023/06/09 04:47:30;;;;;;;9.25;6.90;;;;;;;16.90;85.93;96250.22;5024039;28;20052;-67
2023/06/09 04:49:57;;;;;;;10.77;6.97;;;;;;;17.95;80.47;96249.19;5024540;28;20041;-67
2023/06/09 04:52:22;;;;;;;8.50;6.78;;;;;;;19.40;71.31;96251.09;5018596;28;20614;-67
2023/06/09 04:54:51;;;;;;;9.88;6.47;;;;;;;20.49;64.94;96258.06;5023882;28;20103;-67
2023/06/09 04:57:17;;;;;;;8.38;6.55;;;;;;;21.44;60.01;96262.25;5019394;28;20697;-67
2023/06/09 04:59:45;;;;;;;9.52;6.20;;;;;;;22.46;54.77;96258.28;5024364;28;20397;-67
2023/06/09 05:02:11;;;;;;;7.90;5.97;;;;;;;23.23;52.55;96257.72;5018926;28;20376;-68
2023/06/09 05:04:36;;;;;;;8.25;5.53;;;;;;;23.97;50.00;96261.38;5023542;28;20048;-69
2023/06/09 05:07:03;;;;;;;9.10;5.40;;;;;;;24.70;47.80;96265.31;5022693;28;20492;-69
2023/06/09 05:09:29;;;;;;;8.25;5.70;;;;;;;25.15;45.70;96271.22;5024797;28;20132;-68
2023/06/09 05:11:55;;;;;;;8.82;5.45;;;;;;;25.62;44.02;96260.53;5023874;28;20136;-69
2023/06/09 05:14:20;;;;;;;10.38;6.10;;;;;;;25.73;43.77;96266.38;5017719;28;20506;-68
2023/06/09 05:16:45;;;;;;;10.70;5.65;;;;;;;25.88;43.81;96270.00;5022552;28;20029;-69
2023/06/09 05:19:11;;;;;;;9.75;5.65;;;;;;;26.57;42.00;96272.81;5018376;28;20053;-66
2023/06/09 05:21:37;;;;;;;6.90;4.70;;;;;;;27.03;40.78;96268.75;5024098;28;20190;-68
2023/06/09 05:24:03;;;;;;;8.82;5.47;;;;;;;27.39;39.67;96261.91;5022109;28;20046;-68
2023/06/09 05:26:29;;;;;;;6.75;5.32;;;;;;;25.29;42.97;96272.56;5021007;28;20118;-68
2023/06/09 05:28:54;;;;;;;10.07;6.50;;;;;;;21.28;54.48;96274.31;5023367;28;20495;-68
2023/06/09 05:31:20;;;;;;;8.45;6.32;;;;;;;21.49;55.46;96270.84;5017910;28;20048;-68
2023/06/09 05:33:46;;;;;;;8.13;6.80;;;;;;;20.04;62.42;96262.53;5023187;28;20219;-68
2023/06/09 05:36:12;;;;;;;8.50;6.00;;;;;;;20.35;61.11;96266.81;5019911;28;20102;-68
2023/06/09 05:38:37;;;;;;;9.57;6.72;;;;;;;19.71;64.46;96258.25;5024875;28;20041;-68
2023/06/09 05:41:03;;;;;;;8.23;6.05;;;;;;;19.07;66.74;96253.13;5010944;28;20092;-68
2023/06/09 05:43:29;;;;;;;8.80;6.20;;;;;;;18.82;70.09;96264.81;5019402;28;20050;-67
2023/06/09 05:45:55;;;;;;;12.32;6.15;;;;;;;20.13;64.90;96266.63;5023329;28;20049;-68
2023/06/09 05:48:20;;;;;;;10.82;6.35;;;;;;;18.63;69.64;96271.94;5023880;28;20057;-68
2023/06/09 05:50:46;;;;;;;8.93;6.70;;;;;;;18.94;69.82;96260.56;5024067;28;20033;-68
2023/06/09 05:53:12;;;;;;;10.55;6.10;;;;;;;19.74;66.43;96274.06;5038109;28;20383;-68
2023/06/09 05:55:38;;;;;;;9.40;5.93;;;;;;;21.68;57.77;96269.03;5029071;28;20521;-69
2023/06/09 05:58:03;;;;;;;7.78;5.50;;;;;;;20.54;61.28;96265.06;5021201;28;20037;-68
2023/06/09 06:00:33;;;;;;;7.93;5.90;;;;;;;18.85;68.83;96269.47;5021301;28;20363;-69
2023/06/09 06:03:00;;;;;;;10.63;6.45;;;;;;;18.46;71.87;96271.91;5022801;28;20033;-69
2023/06/09 06:05:26;;;;;;;8.63;5.70;;;;;;;20.22;65.57;96269.56;5018160;28;20490;-69
2023/06/09 06:07:52;;;;;;;8.43;5.55;;;;;;;19.61;67.19;96272.00;5022865;28;20104;-68
2023/06/09 06:10:17;;;;;;;7.32;5.00;;;;;;;20.67;62.03;96262.31;5018144;28;20164;-68
2023/06/09 06:12:43;;;;;;;7.43;5.35;;;;;;;20.17;61.62;96265.34;5021270;28;20038;-68
2023/06/09 06:15:09;;;;;;;7.43;5.05;;;;;;;20.05;64.14;96261.28;5017951;28;20052;-68
2023/06/09 06:17:34;;;;;;;6.95;4.90;;;;;;;20.76;60.36;96260.44;5021352;28;20445;-68
2023/06/09 06:20:00;;;;;;;8.45;5.03;;;;;;;20.07;63.06;96265.63;5023427;28;20034;-68
2023/06/09 06:22:25;;;;;;;6.65;5.40;;;;;;;18.67;68.72;96261.53;5017794;28;20128;-68
2023/06/09 06:24:51;;;;;;;8.00;5.28;;;;;;;19.93;66.42;96270.34;5022595;28;20092;-68
2023/06/09 06:27:16;;;;;;;8.23;5.53;;;;;;;18.71;69.34;96279.69;5017710;28;20057;-68
2023/06/09 06:29:42;;;;;;;8.63;5.93;;;;;;;19.43;67.68;96269.66;5022178;28;20056;-68
2023/06/09 06:32:08;;;;;;;7.93;5.32;;;;;;;19.44;67.60;96276.00;5017819;28;20099;-68
2023/06/09 06:34:34;;;;;;;8.07;5.57;;;;;;;19.86;62.42;96276.09;5023820;28;20044;-68
2023/06/09 06:37:00;;;;;;;7.05;5.00;;;;;;;20.15;61.79;96278.09;5022437;28;20537;-68
2023/06/09 06:39:25;;;;;;;6.80;5.40;;;;;;;19.75;62.16;96283.97;5018445;28;20479;-68
2023/06/09 06:41:51;;;;;;;8.25;4.93;;;;;;;20.90;59.32;96283.47;5022303;28;20052;-69
2023/06/09 06:44:16;;;;;;;7.40;5.47;;;;;;;19.16;64.58;96280.25;4999037;28;20589;-68
2023/06/09 06:46:41;;;;;;;6.32;4.60;;;;;;;20.09;62.79;96286.19;5008312;28;20056;-68
2023/06/09 06:49:07;;;;;;;7.80;4.65;;;;;;;21.06;59.59;96291.72;5016486;28;20390;-68
2023/06/09 06:51:32;;;;;;;8.13;4.60;;;;;;;21.83;55.95;96290.81;5021959;28;20100;-68
2023/06/09 06:53:58;;;;;;;5.82;4.47;;;;;;;21.39;56.18;96291.44;5021599;28;20580;-68
2023/06/09 06:56:25;;;;;;;6.70;5.03;;;;;;;20.95;58.75;96282.94;5016471;28;20037;-68
2023/06/09 06:58:50;;;;;;;8.77;5.07;;;;;;;22.65;53.25;96285.06;5022313;28;20518;-68
2023/06/09 07:01:17;;;;;;;5.88;4.72;;;;;;;24.45;47.82;96285.25;5016876;28;20041;-69
2023/06/09 07:03:42;;;;;;;7.28;4.30;;;;;;;25.24;45.31;96288.00;5021867;28;20478;-68
2023/06/09 07:06:09;;;;;;;7.97;4.38;;;;;;;26.27;42.66;96294.47;5015214;28;20060;-68
2023/06/09 07:08:35;;;;;;;5.47;4.45;;;;;;;24.78;44.75;96286.16;5021840;28;20045;-68
2023/06/09 07:11:01;;;;;;;5.80;4.07;;;;;;;23.71;48.08;96285.25;5021851;28;20045;-68
2023/06/09 07:13:26;;;;;;;8.10;5.00;;;;;;;23.14;48.43;96293.97;5018662;28;20045;-69
2023/06/09 07:15:51;;;;;;;6.28;4.40;;;;;;;23.48;49.25;96293.00;5024748;28;20075;-69
2023/06/09 07:18:17;;;;;;;7.75;4.50;;;;;;;22.42;50.96;96291.91;5018909;28;20131;-70
2023/06/09 07:20:43;;;;;;;8.65;4.63;;;;;;;22.69;49.85;96294.09;5023757;28;20052;-70
2023/06/09 07:23:08;;;;;;;6.68;4.75;;;;;;;22.79;49.76;96291.34;5018840;28;20049;-65
2023/06/09 07:25:33;;;;;;;8.13;4.07;;;;;;;24.61;45.46;96296.94;5023330;28;20041;-69
2023/06/09 07:27:59;;;;;;;9.63;4.25;;;;;;;26.75;41.25;96299.97;5023805;28;20045;-68
2023/06/09 07:30:24;;;;;;;7.60;4.40;;;;;;;26.40;41.28;96297.81;5019781;28;20041;-69
2023/06/09 07:32:50;;;;;;;6.55;4.05;;;;;;;26.79;40.17;96299.78;5023792;28;20045;-68
2023/06/09 07:35:19;;;;;;;7.68;4.10;;;;;;;28.59;36.57;96293.00;5020676;28;20041;-70
2023/06/09 07:37:45;;;;;;;6.82;3.72;;;;;;;29.13;34.46;96296.03;5023492;28;20047;-69
2023/06/09 07:40:11;;;;;;;5.20;3.78;;;;;;;25.85;40.34;96299.00;5018781;28;20136;-69
2023/06/09 07:42:36;;;;;;;5.35;3.97;;;;;;;25.13;41.84;96294.09;5021017;28;20547;-69
2023/06/09 07:45:02;;;;;;;5.25;4.00;;;;;;;24.80;44.51;96300.44;5003086;28;20038;-65
2023/06/09 07:47:28;;;;;;;6.93;4.30;;;;;;;24.85;43.61;96296.25;5002637;28;20046;-70
2023/06/09 07:49:53;;;;;;;6.60;4.00;;;;;;;26.02;42.71;96292.97;5004047;28;20463;-68
2023/06/09 07:52:18;;;;;;;5.03;3.90;;;;;;;26.74;40.45;96301.25;4999042;28;20038;-67
2023/06/09 07:54:44;;;;;;;5.60;3.67;;;;;;;26.93;39.56;96306.66;5015619;28;20128;-69
2023/06/09 07:57:10;;;;;;;7.10;3.75;;;;;;;28.35;37.62;96296.84;5038809;28;20045;-69
2023/06/09 07:59:35;;;;;;;6.95;4.03;;;;;;;27.35;38.34;96289.47;5043697;28;20044;-68
2023/06/09 08:02:01;;;;;;;8.13;4.25;;;;;;;24.49;44.56;96285.88;5042833;28;20547;-67
2023/06/09 08:04:28;;;;;;;6.22;3.97;;;;;;;24.98;45.13;96284.84;5039416;28;20048;-69
2023/06/09 08:06:54;;;;;;;7.20;4.28;;;;;;;25.05;43.42;96287.31;5043663;28;20043;-70
2023/06/09 08:09:19;;;;;;;7.20;4.35;;;;;;;25.43;43.70;96276.72;5042823;28;20124;-71
2023/06/09 08:11:45;;;;;;;5.93;3.95;;;;;;;26.72;41.62;96284.06;5047586;28;20079;-68
2023/06/09 08:14:10;;;;;;;7.05;4.80;;;;;;;24.30;45.62;96280.31;5041968;28;20848;-67
2023/06/09 08:16:35;;;;;;;7.22;5.10;;;;;;;23.76;46.31;96279.06;5051060;28;20704;-69
2023/06/09 08:19:01;;;;;;;7.40;4.85;;;;;;;23.92;46.01;96266.81;5048704;28;20041;-71
2023/06/09 08:21:26;;;;;;;7.15;4.68;;;;;;;23.51;47.54;96271.72;5045468;28;20048;-70
2023/06/09 08:23:52;;;;;;;6.53;4.53;;;;;;;23.57;47.09;96265.06;5051544;28;20140;-67
2023/06/09 08:26:18;;;;;;;8.02;3.85;;;;;;;23.35;45.93;96265.16;5048598;28;20099;-69
2023/06/09 08:28:43;;;;;;;5.05;3.80;;;;;;;23.31;46.78;96249.81;5045923;28;20037;-67
2023/06/09 08:31:09;;;;;;;9.35;4.35;;;;;;;23.33;46.69;96264.09;5040171;28;20135;-66
2023/06/09 08:33:35;;;;;;;10.73;4.47;;;;;;;23.13;47.17;96259.69;5045224;28;20033;-68
2023/06/09 08:36:04;;;;;;;6.88;4.22;;;;;;;24.13;46.42;96245.50;5045511;28;20095;-67
2023/06/09 08:38:34;;;;;;;6.13;4.15;;;;;;;24.87;44.86;96245.38;5044467;28;20040;-67
2023/06/09 08:41:10;;;;;;;6.13;4.22;;;;;;;24.64;45.92;96250.41;5035116;28;20406;-67
2023/06/09 08:43:36;;;;;;;6.38;3.85;;;;;;;25.07;45.38;96248.38;5012570;28;20082;-67
2023/06/09 08:46:06;;;;;;;7.55;4.03;;;;;;;25.98;45.10;96244.69;5004157;28;20041;-71
2023/06/09 08:48:34;;;;;;;7.28;4.55;;;;;;;24.64;46.23;96244.03;5004564;28;20054;-67
2023/06/09 08:51:00;;;;;;;6.05;4.47;;;;;;;24.63;47.22;96242.47;5004967;28;20096;-68
2023/06/09 08:53:26;;;;;;;5.15;3.67;;;;;;;24.87;47.07;96245.38;5000636;28;20050;-68
2023/06/09 08:55:53;;;;;;;7.25;4.57;;;;;;;25.02;45.84;96246.22;5035071;28;20520;-68
2023/06/09 08:58:20;;;;;;;5.72;4.35;;;;;;;25.64;45.08;96247.59;5039274;28;20751;-69
2023/06/09 09:00:50;;;;;;;5.03;4.10;;;;;;;26.24;42.54;96245.72;5044957;28;20049;-67
2023/06/09 09:03:17;;;;;;;6.65;4.60;;;;;;;25.06;46.19;96251.66;5039289;28;20072;-67
2023/06/09 09:05:43;;;;;;;6.18;4.20;;;;;;;25.29;45.23;96248.13;5044913;28;20037;-65
2023/06/09 09:08:10;;;;;;;7.18;4.88;;;;;;;25.05;45.07;96245.28;5039371;28;20083;-68
2023/06/09 09:10:38;;;;;;;6.00;4.60;;;;;;;25.30;44.37;96241.28;5043308;28;20076;-68
2023/06/09 09:13:07;;;;;;;6.05;4.60;;;;;;;24.43;47.42;96232.56;5039574;28;20447;-70
2023/06/09 09:15:33;;;;;;;6.25;4.53;;;;;;;24.26;47.41;96237.72;5044350;28;20076;-65
2023/06/09 09:17:58;;;;;;;7.03;4.40;;;;;;;24.85;46.65;96236.63;5043996;28;20454;-66
2023/06/09 09:20:33;;;;;;;5.93;4.15;;;;;;;26.18;43.59;96228.00;5039270;28;20483;-65
2023/06/09 09:22:59;;;;;;;7.20;4.30;;;;;;;27.39;41.06;96218.97;5044163;28;20094;-65
2023/06/09 09:25:29;;;;;;;6.38;4.57;;;;;;;28.35;40.99;96228.50;5039208;28;20444;-67
2023/06/09 09:28:12;;;;;;;6.85;4.50;;;;;;;27.80;39.55;96236.59;5043705;28;20049;-65
2023/06/09 09:30:40;;;;;;;5.80;4.38;;;;;;;28.53;37.66;96219.72;5043953;28;20513;-66
2023/06/09 09:33:10;;;;;;;6.35;3.83;;;;;;;27.64;40.04;96221.06;5039337;28;20045;-65
2023/06/09 09:35:38;;;;;;;6.43;4.75;;;;;;;28.25;40.28;96216.63;5044044;28;20079;-66
2023/06/09 09:38:03;;;;;;;7.18;4.40;;;;;;;28.44;38.79;96216.28;5040698;28;20132;-69
2023/06/09 09:40:29;;;;;;;8.10;4.53;;;;;;;28.11;42.08;96214.69;5038150;28;20128;-67
2023/06/09 09:43:00;;;;;;;6.82;4.43;;;;;;;27.88;38.98;96210.84;5016732;28;20038;-67
2023/06/09 09:45:26;;;;;;;12.30;6.40;;;;;;;27.87;38.68;96214.91;4999409;28;20145;-63
2023/06/09 09:47:52;;;;;;;8.23;4.80;;;;;;;27.79;41.46;96206.91;5004381;28;20044;-66
2023/06/09 09:50:23;;;;;;;6.47;4.30;;;;;;;27.79;39.79;96209.72;5000404;28;20046;-66
2023/06/09 09:52:50;;;;;;;11.43;5.75;;;;;;;27.48;42.86;96192.72;5004236;28;20094;-67
2023/06/09 09:55:16;;;;;;;9.38;5.30;;;;;;;27.79;42.70;96192.06;5010001;28;20441;-67
2023/06/09 09:57:42;;;;;;;10.75;5.75;;;;;;;27.77;41.78;96198.19;5024378;28;20044;-67
2023/06/09 10:00:12;;;;;;;6.05;4.03;;;;;;;27.64;39.76;96187.31;5019682;28;20037;-65
2023/06/09 10:02:42;;;;;;;6.18;4.00;;;;;;;27.72;41.71;96186.88;5022029;28;20517;-65
2023/06/09 10:05:07;;;;;;;;;;;;;;;27.99;40.60;96180.03;5019661;28;20117;-66
2023/06/09 10:07:38;;;;;;;10.38;4.45;;;;;;;28.28;39.51;96183.88;5024029;28;19928;-66
2023/06/09 10:10:04;;;;;;;8.77;4.80;;;;;;;28.12;37.81;96186.03;5019075;28;20037;-70
2023/06/09 10:12:30;;;;;;;6.40;4.32;;;;;;;27.85;39.80;96178.81;5021200;28;20659;-66
2023/06/09 10:14:57;;;;;;;6.20;4.00;;;;;;;27.68;37.12;96184.28;5021317;28;20175;-67
2023/06/09 10:17:25;;;;;;;6.95;4.22;;;;;;;27.48;38.48;96184.28;5019049;28;20861;-68
2023/06/09 10:19:52;;;;;;;5.88;4.55;;;;;;;27.99;39.65;96180.78;5023450;28;20075;-66
2023/06/09 10:22:21;;;;;;;6.47;4.72;;;;;;;27.94;40.04;96173.06;5018681;28;20038;-68
2023/06/09 10:24:47;;;;;;;5.38;3.80;;;;;;;28.31;37.87;96171.63;5023304;28;20130;-66
2023/06/09 10:27:14;;;;;;;7.22;4.63;;;;;;;28.34;38.98;96184.69;5018088;28;20076;-66
2023/06/09 10:29:40;;;;;;;6.43;3.83;;;;;;;28.25;39.41;96177.19;5022330;28;20045;-66
2023/06/09 10:32:09;;;;;;;5.40;4.50;;;;;;;27.87;39.46;96181.91;5018197;28;20056;-65
2023/06/09 10:34:36;;;;;;;6.10;3.87;;;;;;;27.09;39.49;96179.69;5023690;28;20094;-68
2023/06/09 10:37:04;;;;;;;5.38;3.20;;;;;;;26.45;34.83;96181.22;5019966;28;20288;-65
2023/06/09 10:39:52;;;;;;;4.45;3.17;;;;;;;26.53;34.21;96162.75;5021245;28;20046;-65
2023/06/09 10:43:11;;;;;;;4.97;3.30;;;;;;;26.27;33.15;96165.38;5001024;28;20048;-65
2023/06/09 10:45:52;;;;;;;4.53;3.13;;;;;;;27.19;32.72;96161.41;4942103;28;20618;-67
2023/06/09 10:48:42;;;;;;;4.03;3.08;;;;;;;26.16;34.40;96168.75;5009698;28;20049;-66
2023/06/09 10:51:47;;;;;;;4.82;3.40;;;;;;;26.06;35.00;96156.88;5018322;28;20033;-66
2023/06/09 10:54:12;;;;;;;5.57;3.15;;;;;;;26.79;33.54;96162.88;4975327;28;20117;-67
2023/06/09 10:56:43;;;;;;;5.10;3.50;;;;;;;27.38;32.23;96161.94;4979793;28;20128;-66
2023/06/09 10:59:24;;;;;;;4.78;3.13;;;;;;;26.58;34.42;96150.03;5001471;28;20084;-66
2023/06/09 11:02:11;;;;;;;6.15;3.20;;;;;;;26.20;33.89;96146.91;5024980;28;20045;-70
2023/06/09 11:04:45;;;;;;;7.57;3.63;;;;;;;26.43;33.34;96153.63;5042308;28;20071;-68
2023/06/09 11:07:26;;;;;;;4.72;3.17;;;;;;;26.22;32.17;96149.22;5030451;28;20133;-67
2023/06/09 11:09:51;;;;;;;5.40;3.55;;;;;;;26.43;33.96;96147.25;5022766;28;20037;-67
2023/06/09 11:12:38;;;;;;;6.33;3.60;;;;;;;26.97;32.04;96147.81;5017765;28;20137;-66
2023/06/09 11:15:06;;;;;;;5.22;3.30;;;;;;;27.00;31.24;96148.88;5018043;28;20303;-70
2023/06/09 11:17:45;;;;;;;7.63;3.78;;;;;;;26.97;30.26;96133.00;5022004;28;20048;-68
2023/06/09 11:20:14;;;;;;;6.10;3.67;;;;;;;26.74;31.56;96143.16;5017823;28;20049;-66
2023/06/09 11:22:44;;;;;;;5.43;3.58;;;;;;;27.00;31.70;96132.78;5021539;28;20053;-67
2023/06/09 11:25:18;;;;;;;4.68;3.40;;;;;;;26.98;31.68;96129.72;5017787;28;20172;-66
2023/06/09 11:27:44;;;;;;;8.32;4.00;;;;;;;26.68;30.89;96132.59;5021649;28;20151;-67
2023/06/09 11:30:12;;;;;;;6.57;3.67;;;;;;;26.88;30.85;96122.66;5017405;28;20180;-67
2023/06/09 11:33:03;;;;;;;5.25;3.15;;;;;;;26.43;32.21;96131.16;5022112;28;20041;-67